Agecroft, United Kingdom
Current Conditions -  °F | °C
As of 6:20 AM on Wednesday 28 Jan 2015 (Local Time) from EGCC Reporting Station
Broken Clouds Broken Clouds  
Wind Chill: 39°   Ceiling: 2000
Heat Index: 46°   Visibility: 6mi
Dew Point: 45°   Wind: 18mph
Humidity: 93%   Direction: 200°SSW
Pressure: 29.5"   Gusts: NA
Location:  53.5°N, 2.35°W
Report Text: EGCC 280620Z 20016KT 9999 FEW011 BKN020 08/07 Q0999 TEMPO BKN012
Loading
Personal Weather Stations






























Interactive Weather Map New forecast layout! Learn more

10-Day Weather Forecast

Advertisements
Track Severe Weather on mobile